sensor_id;sensor_type;location;lat;lon;timestamp;P1;durP1;ratioP1;P2;durP2;ratioP2
14599;SDS011;7386;45.586;12.854;2023-04-07T00:02:06;17.70;;;12.47;;
14599;SDS011;7386;45.586;12.854;2023-04-07T00:04:34;15.17;;;12.23;;
14599;SDS011;7386;45.586;12.854;2023-04-07T00:07:03;17.33;;;12.77;;
14599;SDS011;7386;45.586;12.854;2023-04-07T00:09:31;17.27;;;13.20;;
14599;SDS011;7386;45.586;12.854;2023-04-07T00:12:00;16.63;;;13.20;;
14599;SDS011;7386;45.586;12.854;2023-04-07T00:14:29;18.10;;;13.80;;
14599;SDS011;7386;45.586;12.854;2023-04-07T00:16:58;17.60;;;13.80;;
14599;SDS011;7386;45.586;12.854;2023-04-07T00:19:27;19.60;;;14.27;;
14599;SDS011;7386;45.586;12.854;2023-04-07T00:21:55;18.80;;;13.47;;
14599;SDS011;7386;45.586;12.854;2023-04-07T00:24:24;18.60;;;14.10;;
14599;SDS011;7386;45.586;12.854;2023-04-07T00:26:59;18.20;;;13.80;;
14599;SDS011;7386;45.586;12.854;2023-04-07T00:29:28;19.67;;;14.90;;
14599;SDS011;7386;45.586;12.854;2023-04-07T00:31:56;18.80;;;14.07;;
14599;SDS011;7386;45.586;12.854;2023-04-07T00:34:26;18.50;;;14.07;;
14599;SDS011;7386;45.586;12.854;2023-04-07T00:36:55;19.50;;;14.37;;
14599;SDS011;7386;45.586;12.854;2023-04-07T00:39:23;18.90;;;14.00;;
14599;SDS011;7386;45.586;12.854;2023-04-07T00:41:53;18.57;;;14.00;;
14599;SDS011;7386;45.586;12.854;2023-04-07T00:44:21;20.20;;;14.03;;
14599;SDS011;7386;45.586;12.854;2023-04-07T00:46:50;18.73;;;14.53;;
14599;SDS011;7386;45.586;12.854;2023-04-07T00:49:19;18.87;;;14.10;;
14599;SDS011;7386;45.586;12.854;2023-04-07T00:51:49;17.93;;;14.07;;
14599;SDS011;7386;45.586;12.854;2023-04-07T00:54:17;19.13;;;13.83;;
14599;SDS011;7386;45.586;12.854;2023-04-07T00:56:46;19.13;;;14.57;;
14599;SDS011;7386;45.586;12.854;2023-04-07T00:59:14;18.47;;;14.40;;
14599;SDS011;7386;45.586;12.854;2023-04-07T01:01:43;19.67;;;14.80;;
14599;SDS011;7386;45.586;12.854;2023-04-07T01:04:16;21.13;;;15.10;;
14599;SDS011;7386;45.586;12.854;2023-04-07T01:06:49;20.60;;;14.83;;
14599;SDS011;7386;45.586;12.854;2023-04-07T01:09:20;21.90;;;16.00;;
14599;SDS011;7386;45.586;12.854;2023-04-07T01:11:51;22.83;;;15.97;;
14599;SDS011;7386;45.586;12.854;2023-04-07T01:14:24;20.97;;;15.90;;
14599;SDS011;7386;45.586;12.854;2023-04-07T01:16:53;22.97;;;16.40;;
14599;SDS011;7386;45.586;12.854;2023-04-07T01:19:29;22.33;;;16.03;;
14599;SDS011;7386;45.586;12.854;2023-04-07T01:22:00;21.00;;;15.83;;
14599;SDS011;7386;45.586;12.854;2023-04-07T01:24:38;20.97;;;15.97;;
14599;SDS011;7386;45.586;12.854;2023-04-07T01:27:13;20.67;;;15.63;;
14599;SDS011;7386;45.586;12.854;2023-04-07T01:29:44;23.87;;;16.60;;
14599;SDS011;7386;45.586;12.854;2023-04-07T01:32:15;19.87;;;15.23;;
14599;SDS011;7386;45.586;12.854;2023-04-07T01:34:46;20.53;;;14.73;;
14599;SDS011;7386;45.586;12.854;2023-04-07T01:37:16;21.00;;;15.60;;
14599;SDS011;7386;45.586;12.854;2023-04-07T01:39:44;21.17;;;15.60;;
14599;SDS011;7386;45.586;12.854;2023-04-07T01:42:13;20.17;;;14.93;;
14599;SDS011;7386;45.586;12.854;2023-04-07T01:44:42;20.17;;;15.50;;
14599;SDS011;7386;45.586;12.854;2023-04-07T01:47:13;20.63;;;15.50;;
14599;SDS011;7386;45.586;12.854;2023-04-07T01:49:43;19.73;;;14.93;;
14599;SDS011;7386;45.586;12.854;2023-04-07T01:52:12;21.53;;;14.70;;
14599;SDS011;7386;45.586;12.854;2023-04-07T01:54:41;20.17;;;15.43;;
14599;SDS011;7386;45.586;12.854;2023-04-07T01:57:10;20.73;;;16.50;;
14599;SDS011;7386;45.586;12.854;2023-04-07T01:59:39;21.33;;;16.43;;
14599;SDS011;7386;45.586;12.854;2023-04-07T02:02:07;22.97;;;16.23;;
14599;SDS011;7386;45.586;12.854;2023-04-07T02:04:39;20.93;;;16.27;;
14599;SDS011;7386;45.586;12.854;2023-04-07T02:07:13;23.03;;;16.47;;
14599;SDS011;7386;45.586;12.854;2023-04-07T02:09:42;24.00;;;16.07;;
14599;SDS011;7386;45.586;12.854;2023-04-07T02:12:10;20.23;;;15.07;;
14599;SDS011;7386;45.586;12.854;2023-04-07T02:14:40;21.83;;;14.97;;
14599;SDS011;7386;45.586;12.854;2023-04-07T02:17:09;19.57;;;14.37;;
14599;SDS011;7386;45.586;12.854;2023-04-07T02:19:40;21.33;;;15.33;;
14599;SDS011;7386;45.586;12.854;2023-04-07T02:22:09;20.60;;;15.53;;
14599;SDS011;7386;45.586;12.854;2023-04-07T02:24:40;20.93;;;15.20;;
14599;SDS011;7386;45.586;12.854;2023-04-07T02:27:08;20.43;;;15.73;;
14599;SDS011;7386;45.586;12.854;2023-04-07T02:29:37;23.70;;;16.23;;
14599;SDS011;7386;45.586;12.854;2023-04-07T02:32:06;21.87;;;16.23;;
14599;SDS011;7386;45.586;12.854;2023-04-07T02:34:34;21.40;;;16.03;;
14599;SDS011;7386;45.586;12.854;2023-04-07T02:37:04;22.00;;;16.50;;
14599;SDS011;7386;45.586;12.854;2023-04-07T02:39:33;22.00;;;16.33;;
14599;SDS011;7386;45.586;12.854;2023-04-07T02:42:01;23.87;;;16.77;;
14599;SDS011;7386;45.586;12.854;2023-04-07T02:44:30;24.97;;;17.53;;
14599;SDS011;7386;45.586;12.854;2023-04-07T02:46:59;23.90;;;17.90;;
14599;SDS011;7386;45.586;12.854;2023-04-07T02:49:27;24.77;;;18.70;;
14599;SDS011;7386;45.586;12.854;2023-04-07T02:51:56;27.77;;;18.87;;
14599;SDS011;7386;45.586;12.854;2023-04-07T02:54:25;22.80;;;17.30;;
14599;SDS011;7386;45.586;12.854;2023-04-07T02:56:54;26.23;;;17.90;;
14599;SDS011;7386;45.586;12.854;2023-04-07T02:59:23;23.63;;;17.73;;
14599;SDS011;7386;45.586;12.854;2023-04-07T03:01:51;30.40;;;18.90;;
14599;SDS011;7386;45.586;12.854;2023-04-07T03:04:20;26.93;;;18.43;;
14599;SDS011;7386;45.586;12.854;2023-04-07T03:06:49;24.93;;;17.73;;
14599;SDS011;7386;45.586;12.854;2023-04-07T03:09:17;25.03;;;18.10;;
14599;SDS011;7386;45.586;12.854;2023-04-07T03:11:47;26.20;;;18.87;;
14599;SDS011;7386;45.586;12.854;2023-04-07T03:14:16;26.43;;;19.37;;
14599;SDS011;7386;45.586;12.854;2023-04-07T03:16:44;27.53;;;19.00;;
14599;SDS011;7386;45.586;12.854;2023-04-07T03:19:13;25.83;;;18.60;;
14599;SDS011;7386;45.586;12.854;2023-04-07T03:21:41;25.60;;;18.63;;
14599;SDS011;7386;45.586;12.854;2023-04-07T03:24:10;25.10;;;18.57;;
14599;SDS011;7386;45.586;12.854;2023-04-07T03:26:38;26.60;;;18.87;;
14599;SDS011;7386;45.586;12.854;2023-04-07T03:29:08;27.00;;;19.13;;
14599;SDS011;7386;45.586;12.854;2023-04-07T03:31:37;27.60;;;20.70;;
14599;SDS011;7386;45.586;12.854;2023-04-07T03:34:05;27.93;;;19.70;;
14599;SDS011;7386;45.586;12.854;2023-04-07T03:36:34;28.27;;;19.80;;
14599;SDS011;7386;45.586;12.854;2023-04-07T03:39:02;27.50;;;20.50;;
14599;SDS011;7386;45.586;12.854;2023-04-07T03:41:31;28.53;;;21.27;;
14599;SDS011;7386;45.586;12.854;2023-04-07T03:44:00;28.27;;;21.13;;
14599;SDS011;7386;45.586;12.854;2023-04-07T03:46:30;30.33;;;21.63;;
14599;SDS011;7386;45.586;12.854;2023-04-07T03:48:59;27.73;;;21.00;;
14599;SDS011;7386;45.586;12.854;2023-04-07T03:51:27;31.23;;;21.40;;
14599;SDS011;7386;45.586;12.854;2023-04-07T03:53:56;31.70;;;22.50;;
14599;SDS011;7386;45.586;12.854;2023-04-07T03:56:24;31.83;;;22.43;;
14599;SDS011;7386;45.586;12.854;2023-04-07T03:58:54;32.60;;;22.40;;
14599;SDS011;7386;45.586;12.854;2023-04-07T04:01:23;31.80;;;23.53;;
14599;SDS011;7386;45.586;12.854;2023-04-07T04:03:53;30.97;;;22.33;;
14599;SDS011;7386;45.586;12.854;2023-04-07T04:06:21;35.17;;;23.60;;
14599;SDS011;7386;45.586;12.854;2023-04-07T04:08:50;32.23;;;22.67;;
14599;SDS011;7386;45.586;12.854;2023-04-07T04:11:18;31.70;;;22.37;;
14599;SDS011;7386;45.586;12.854;2023-04-07T04:13:47;35.03;;;23.57;;
14599;SDS011;7386;45.586;12.854;2023-04-07T04:16:17;32.00;;;22.67;;
14599;SDS011;7386;45.586;12.854;2023-04-07T04:18:45;35.00;;;23.97;;
14599;SDS011;7386;45.586;12.854;2023-04-07T04:21:15;33.50;;;23.57;;
14599;SDS011;7386;45.586;12.854;2023-04-07T04:23:44;33.20;;;23.40;;
14599;SDS011;7386;45.586;12.854;2023-04-07T04:26:12;33.77;;;22.93;;
14599;SDS011;7386;45.586;12.854;2023-04-07T04:28:41;37.30;;;26.90;;
14599;SDS011;7386;45.586;12.854;2023-04-07T04:31:09;36.50;;;25.83;;
14599;SDS011;7386;45.586;12.854;2023-04-07T04:33:38;39.43;;;26.10;;
14599;SDS011;7386;45.586;12.854;2023-04-07T04:36:07;34.77;;;25.60;;
14599;SDS011;7386;45.586;12.854;2023-04-07T04:38:37;36.10;;;26.10;;
14599;SDS011;7386;45.586;12.854;2023-04-07T04:41:05;35.30;;;24.70;;
14599;SDS011;7386;45.586;12.854;2023-04-07T04:43:34;32.60;;;24.23;;
14599;SDS011;7386;45.586;12.854;2023-04-07T04:46:03;35.30;;;25.03;;
14599;SDS011;7386;45.586;12.854;2023-04-07T04:48:31;36.17;;;25.30;;
14599;SDS011;7386;45.586;12.854;2023-04-07T04:51:00;35.43;;;25.83;;
14599;SDS011;7386;45.586;12.854;2023-04-07T04:53:28;39.57;;;25.67;;
14599;SDS011;7386;45.586;12.854;2023-04-07T04:55:58;34.67;;;24.23;;
14599;SDS011;7386;45.586;12.854;2023-04-07T04:58:27;35.07;;;25.50;;
14599;SDS011;7386;45.586;12.854;2023-04-07T05:00:55;37.73;;;25.43;;
14599;SDS011;7386;45.586;12.854;2023-04-07T05:03:25;39.27;;;25.50;;
14599;SDS011;7386;45.586;12.854;2023-04-07T05:05:54;35.30;;;24.23;;
14599;SDS011;7386;45.586;12.854;2023-04-07T05:08:23;37.67;;;26.10;;
14599;SDS011;7386;45.586;12.854;2023-04-07T05:10:51;38.40;;;26.87;;
14599;SDS011;7386;45.586;12.854;2023-04-07T05:13:21;36.00;;;26.17;;
14599;SDS011;7386;45.586;12.854;2023-04-07T05:15:51;40.80;;;26.27;;
14599;SDS011;7386;45.586;12.854;2023-04-07T05:18:20;37.50;;;26.07;;
14599;SDS011;7386;45.586;12.854;2023-04-07T05:20:48;42.93;;;26.93;;
14599;SDS011;7386;45.586;12.854;2023-04-07T05:23:17;39.40;;;26.27;;
14599;SDS011;7386;45.586;12.854;2023-04-07T05:25:45;41.27;;;27.17;;
14599;SDS011;7386;45.586;12.854;2023-04-07T05:28:14;38.50;;;26.97;;
14599;SDS011;7386;45.586;12.854;2023-04-07T05:30:44;37.77;;;26.47;;
14599;SDS011;7386;45.586;12.854;2023-04-07T05:33:12;34.37;;;25.07;;
14599;SDS011;7386;45.586;12.854;2023-04-07T05:35:42;34.90;;;25.43;;
14599;SDS011;7386;45.586;12.854;2023-04-07T05:38:11;40.03;;;26.17;;
14599;SDS011;7386;45.586;12.854;2023-04-07T05:40:39;37.40;;;25.93;;
14599;SDS011;7386;45.586;12.854;2023-04-07T05:43:08;36.80;;;25.67;;
14599;SDS011;7386;45.586;12.854;2023-04-07T05:45:37;32.43;;;24.03;;
14599;SDS011;7386;45.586;12.854;2023-04-07T05:48:07;33.63;;;24.20;;
14599;SDS011;7386;45.586;12.854;2023-04-07T05:50:36;38.43;;;24.60;;
14599;SDS011;7386;45.586;12.854;2023-04-07T05:53:05;36.43;;;24.47;;
14599;SDS011;7386;45.586;12.854;2023-04-07T05:55:33;34.93;;;24.63;;
14599;SDS011;7386;45.586;12.854;2023-04-07T05:58:02;39.10;;;25.77;;
14599;SDS011;7386;45.586;12.854;2023-04-07T06:00:30;36.83;;;25.77;;
14599;SDS011;7386;45.586;12.854;2023-04-07T06:02:59;41.07;;;27.53;;
14599;SDS011;7386;45.586;12.854;2023-04-07T06:05:30;35.90;;;25.90;;
14599;SDS011;7386;45.586;12.854;2023-04-07T06:08:00;39.30;;;27.30;;
14599;SDS011;7386;45.586;12.854;2023-04-07T06:10:28;42.47;;;27.17;;
14599;SDS011;7386;45.586;12.854;2023-04-07T06:12:57;45.90;;;26.87;;
14599;SDS011;7386;45.586;12.854;2023-04-07T06:15:25;40.00;;;25.50;;
14599;SDS011;7386;45.586;12.854;2023-04-07T06:17:54;34.37;;;25.07;;
14599;SDS011;7386;45.586;12.854;2023-04-07T06:20:22;41.27;;;27.30;;
14599;SDS011;7386;45.586;12.854;2023-04-07T06:22:54;36.77;;;25.83;;
14599;SDS011;7386;45.586;12.854;2023-04-07T06:25:23;35.73;;;25.77;;
14599;SDS011;7386;45.586;12.854;2023-04-07T06:27:52;41.07;;;26.67;;
14599;SDS011;7386;45.586;12.854;2023-04-07T06:30:20;39.50;;;27.60;;
14599;SDS011;7386;45.586;12.854;2023-04-07T06:32:49;34.10;;;24.77;;
14599;SDS011;7386;45.586;12.854;2023-04-07T06:35:18;36.70;;;26.03;;
14599;SDS011;7386;45.586;12.854;2023-04-07T06:37:46;41.10;;;28.33;;
14599;SDS011;7386;45.586;12.854;2023-04-07T06:40:16;37.10;;;26.80;;
14599;SDS011;7386;45.586;12.854;2023-04-07T06:42:45;33.60;;;23.93;;
14599;SDS011;7386;45.586;12.854;2023-04-07T06:45:13;34.20;;;25.03;;
14599;SDS011;7386;45.586;12.854;2023-04-07T06:47:42;38.30;;;26.27;;
14599;SDS011;7386;45.586;12.854;2023-04-07T06:50:10;43.67;;;25.97;;
14599;SDS011;7386;45.586;12.854;2023-04-07T06:52:39;37.60;;;26.20;;
14599;SDS011;7386;45.586;12.854;2023-04-07T06:55:08;28.57;;;20.53;;
14599;SDS011;7386;45.586;12.854;2023-04-07T06:57:38;31.40;;;20.93;;
14599;SDS011;7386;45.586;12.854;2023-04-07T07:00:07;35.53;;;25.27;;
14599;SDS011;7386;45.586;12.854;2023-04-07T07:02:36;34.90;;;25.10;;
14599;SDS011;7386;45.586;12.854;2023-04-07T07:05:05;23.63;;;17.43;;
14599;SDS011;7386;45.586;12.854;2023-04-07T07:07:33;27.27;;;20.17;;
14599;SDS011;7386;45.586;12.854;2023-04-07T07:10:02;39.93;;;25.13;;
14599;SDS011;7386;45.586;12.854;2023-04-07T07:12:30;31.63;;;23.07;;
14599;SDS011;7386;45.586;12.854;2023-04-07T07:15:00;18.70;;;14.47;;
14599;SDS011;7386;45.586;12.854;2023-04-07T07:17:29;30.30;;;22.17;;
14599;SDS011;7386;45.586;12.854;2023-04-07T07:19:57;34.20;;;23.77;;
14599;SDS011;7386;45.586;12.854;2023-04-07T07:22:26;37.30;;;25.80;;
14599;SDS011;7386;45.586;12.854;2023-04-07T07:24:54;37.77;;;27.50;;
14599;SDS011;7386;45.586;12.854;2023-04-07T07:27:23;36.87;;;26.70;;
14599;SDS011;7386;45.586;12.854;2023-04-07T07:29:52;22.47;;;16.60;;
14599;SDS011;7386;45.586;12.854;2023-04-07T07:32:22;27.67;;;20.63;;
14599;SDS011;7386;45.586;12.854;2023-04-07T07:34:50;34.93;;;25.73;;
14599;SDS011;7386;45.586;12.854;2023-04-07T07:37:19;40.27;;;27.33;;
14599;SDS011;7386;45.586;12.854;2023-04-07T07:39:47;37.80;;;27.03;;
14599;SDS011;7386;45.586;12.854;2023-04-07T07:42:16;32.07;;;24.27;;
14599;SDS011;7386;45.586;12.854;2023-04-07T07:44:44;21.03;;;14.80;;
14599;SDS011;7386;45.586;12.854;2023-04-07T07:47:13;29.93;;;21.47;;
14599;SDS011;7386;45.586;12.854;2023-04-07T07:49:43;37.80;;;23.50;;
14599;SDS011;7386;45.586;12.854;2023-04-07T07:52:11;26.73;;;19.77;;
14599;SDS011;7386;45.586;12.854;2023-04-07T07:54:40;16.83;;;13.40;;
14599;SDS011;7386;45.586;12.854;2023-04-07T07:57:08;30.20;;;20.77;;
14599;SDS011;7386;45.586;12.854;2023-04-07T07:59:37;31.37;;;22.13;;
14599;SDS011;7386;45.586;12.854;2023-04-07T08:02:06;25.30;;;18.60;;
14599;SDS011;7386;45.586;12.854;2023-04-07T08:04:35;21.73;;;15.73;;
14599;SDS011;7386;45.586;12.854;2023-04-07T08:07:05;23.97;;;17.70;;
14599;SDS011;7386;45.586;12.854;2023-04-07T08:09:34;29.23;;;20.83;;
14599;SDS011;7386;45.586;12.854;2023-04-07T08:12:03;22.93;;;16.77;;
14599;SDS011;7386;45.586;12.854;2023-04-07T08:14:31;21.30;;;15.90;;
14599;SDS011;7386;45.586;12.854;2023-04-07T08:17:00;24.47;;;18.47;;
14599;SDS011;7386;45.586;12.854;2023-04-07T08:19:28;27.50;;;20.90;;
14599;SDS011;7386;45.586;12.854;2023-04-07T08:21:57;18.83;;;14.30;;
14599;SDS011;7386;45.586;12.854;2023-04-07T08:24:27;19.80;;;15.47;;
14599;SDS011;7386;45.586;12.854;2023-04-07T08:26:55;27.63;;;18.37;;
14599;SDS011;7386;45.586;12.854;2023-04-07T08:29:24;24.93;;;18.50;;
14599;SDS011;7386;45.586;12.854;2023-04-07T08:31:52;18.00;;;13.23;;
14599;SDS011;7386;45.586;12.854;2023-04-07T08:34:21;16.00;;;12.90;;
14599;SDS011;7386;45.586;12.854;2023-04-07T08:36:50;22.03;;;17.13;;
14599;SDS011;7386;45.586;12.854;2023-04-07T08:39:18;27.37;;;19.77;;
14599;SDS011;7386;45.586;12.854;2023-04-07T08:41:49;20.63;;;13.43;;
14599;SDS011;7386;45.586;12.854;2023-04-07T08:44:18;20.70;;;14.87;;
14599;SDS011;7386;45.586;12.854;2023-04-07T08:46:49;21.17;;;16.10;;
14599;SDS011;7386;45.586;12.854;2023-04-07T08:49:18;22.07;;;15.60;;
14599;SDS011;7386;45.586;12.854;2023-04-07T08:51:48;22.90;;;15.00;;
14599;SDS011;7386;45.586;12.854;2023-04-07T08:54:17;22.03;;;15.27;;
14599;SDS011;7386;45.586;12.854;2023-04-07T08:56:47;24.67;;;17.07;;
14599;SDS011;7386;45.586;12.854;2023-04-07T08:59:17;25.80;;;17.60;;
14599;SDS011;7386;45.586;12.854;2023-04-07T09:01:50;25.63;;;17.20;;
14599;SDS011;7386;45.586;12.854;2023-04-07T09:04:19;28.97;;;18.43;;
14599;SDS011;7386;45.586;12.854;2023-04-07T09:06:49;28.40;;;19.13;;
14599;SDS011;7386;45.586;12.854;2023-04-07T09:09:18;30.70;;;20.17;;
14599;SDS011;7386;45.586;12.854;2023-04-07T09:11:47;29.97;;;19.27;;
14599;SDS011;7386;45.586;12.854;2023-04-07T09:14:18;30.70;;;19.37;;
14599;SDS011;7386;45.586;12.854;2023-04-07T09:16:48;27.80;;;19.30;;
14599;SDS011;7386;45.586;12.854;2023-04-07T09:19:16;34.17;;;22.90;;
14599;SDS011;7386;45.586;12.854;2023-04-07T09:21:48;33.13;;;20.97;;
14599;SDS011;7386;45.586;12.854;2023-04-07T09:24:20;26.80;;;19.50;;
14599;SDS011;7386;45.586;12.854;2023-04-07T09:26:49;36.67;;;23.40;;
14599;SDS011;7386;45.586;12.854;2023-04-07T09:29:19;39.57;;;24.80;;
14599;SDS011;7386;45.586;12.854;2023-04-07T09:31:48;33.03;;;22.93;;
14599;SDS011;7386;45.586;12.854;2023-04-07T09:34:23;28.63;;;20.40;;
14599;SDS011;7386;45.586;12.854;2023-04-07T09:36:52;39.07;;;25.50;;
14599;SDS011;7386;45.586;12.854;2023-04-07T09:39:21;38.17;;;24.97;;
14599;SDS011;7386;45.586;12.854;2023-04-07T09:41:49;31.47;;;21.33;;
14599;SDS011;7386;45.586;12.854;2023-04-07T09:44:22;27.63;;;21.00;;
14599;SDS011;7386;45.586;12.854;2023-04-07T09:46:52;42.00;;;26.67;;
14599;SDS011;7386;45.586;12.854;2023-04-07T09:49:22;37.80;;;24.00;;
14599;SDS011;7386;45.586;12.854;2023-04-07T09:51:51;33.53;;;22.53;;
14599;SDS011;7386;45.586;12.854;2023-04-07T09:54:32;38.10;;;25.60;;
14599;SDS011;7386;45.586;12.854;2023-04-07T09:57:01;46.67;;;28.53;;
14599;SDS011;7386;45.586;12.854;2023-04-07T09:59:32;33.47;;;23.57;;
14599;SDS011;7386;45.586;12.854;2023-04-07T10:02:01;31.63;;;22.70;;
14599;SDS011;7386;45.586;12.854;2023-04-07T10:04:32;37.77;;;25.53;;
14599;SDS011;7386;45.586;12.854;2023-04-07T10:07:01;42.43;;;26.87;;
14599;SDS011;7386;45.586;12.854;2023-04-07T10:09:30;33.30;;;24.43;;
14599;SDS011;7386;45.586;12.854;2023-04-07T10:11:58;32.10;;;22.33;;
14599;SDS011;7386;45.586;12.854;2023-04-07T10:14:29;44.17;;;29.93;;
14599;SDS011;7386;45.586;12.854;2023-04-07T10:16:59;47.57;;;31.40;;
14599;SDS011;7386;45.586;12.854;2023-04-07T10:19:29;38.10;;;26.73;;
14599;SDS011;7386;45.586;12.854;2023-04-07T10:21:59;48.60;;;32.93;;
14599;SDS011;7386;45.586;12.854;2023-04-07T10:24:35;56.13;;;36.43;;
14599;SDS011;7386;45.586;12.854;2023-04-07T10:27:06;39.10;;;27.83;;
14599;SDS011;7386;45.586;12.854;2023-04-07T10:29:38;31.80;;;24.20;;
14599;SDS011;7386;45.586;12.854;2023-04-07T10:32:10;62.70;;;36.77;;
14599;SDS011;7386;45.586;12.854;2023-04-07T10:37:23;61.17;;;40.03;;
14599;SDS011;7386;45.586;12.854;2023-04-07T10:42:43;49.20;;;32.37;;
14599;SDS011;7386;45.586;12.854;2023-04-07T10:45:13;74.30;;;45.83;;
14599;SDS011;7386;45.586;12.854;2023-04-07T10:50:30;77.40;;;45.53;;
14599;SDS011;7386;45.586;12.854;2023-04-07T10:53:05;70.90;;;42.83;;
14599;SDS011;7386;45.586;12.854;2023-04-07T10:55:35;48.27;;;32.70;;
14599;SDS011;7386;45.586;12.854;2023-04-07T10:58:17;80.43;;;46.30;;
14599;SDS011;7386;45.586;12.854;2023-04-07T11:03:30;77.40;;;47.83;;
14599;SDS011;7386;45.586;12.854;2023-04-07T11:06:05;110.63;;;61.20;;
14599;SDS011;7386;45.586;12.854;2023-04-07T11:08:34;120.87;;;66.60;;
14599;SDS011;7386;45.586;12.854;2023-04-07T11:11:03;84.97;;;50.47;;
14599;SDS011;7386;45.586;12.854;2023-04-07T11:13:39;68.23;;;43.00;;
14599;SDS011;7386;45.586;12.854;2023-04-07T11:16:08;94.17;;;52.67;;
14599;SDS011;7386;45.586;12.854;2023-04-07T11:18:37;71.27;;;43.33;;
14599;SDS011;7386;45.586;12.854;2023-04-07T11:21:07;73.40;;;45.63;;
14599;SDS011;7386;45.586;12.854;2023-04-07T11:23:37;106.40;;;60.40;;
14599;SDS011;7386;45.586;12.854;2023-04-07T11:26:06;79.93;;;47.80;;
14599;SDS011;7386;45.586;12.854;2023-04-07T11:28:36;76.23;;;45.87;;
14599;SDS011;7386;45.586;12.854;2023-04-07T11:31:19;91.07;;;54.23;;
14599;SDS011;7386;45.586;12.854;2023-04-07T11:33:52;76.30;;;47.13;;
14599;SDS011;7386;45.586;12.854;2023-04-07T11:36:26;86.40;;;51.67;;
14599;SDS011;7386;45.586;12.854;2023-04-07T11:38:55;107.83;;;62.50;;
14599;SDS011;7386;45.586;12.854;2023-04-07T11:41:24;121.17;;;68.53;;
14599;SDS011;7386;45.586;12.854;2023-04-07T11:44:03;122.30;;;71.37;;
14599;SDS011;7386;45.586;12.854;2023-04-07T11:46:31;123.17;;;70.93;;
14599;SDS011;7386;45.586;12.854;2023-04-07T11:49:07;125.90;;;72.27;;
14599;SDS011;7386;45.586;12.854;2023-04-07T11:51:37;119.53;;;68.90;;
14599;SDS011;7386;45.586;12.854;2023-04-07T11:54:06;85.57;;;51.77;;
14599;SDS011;7386;45.586;12.854;2023-04-07T11:56:42;50.87;;;34.17;;
14599;SDS011;7386;45.586;12.854;2023-04-07T11:59:20;63.80;;;39.77;;
14599;SDS011;7386;45.586;12.854;2023-04-07T12:01:49;64.37;;;40.50;;
14599;SDS011;7386;45.586;12.854;2023-04-07T12:04:22;51.40;;;34.67;;
14599;SDS011;7386;45.586;12.854;2023-04-07T12:06:52;79.93;;;48.80;;
14599;SDS011;7386;45.586;12.854;2023-04-07T12:09:24;66.80;;;41.47;;
14599;SDS011;7386;45.586;12.854;2023-04-07T12:11:54;67.60;;;41.43;;
14599;SDS011;7386;45.586;12.854;2023-04-07T12:14:23;84.90;;;48.50;;
14599;SDS011;7386;45.586;12.854;2023-04-07T12:16:53;52.97;;;34.80;;
14599;SDS011;7386;45.586;12.854;2023-04-07T12:19:24;68.13;;;41.77;;
14599;SDS011;7386;45.586;12.854;2023-04-07T12:21:54;64.07;;;40.67;;
14599;SDS011;7386;45.586;12.854;2023-04-07T12:24:23;50.53;;;32.60;;
14599;SDS011;7386;45.586;12.854;2023-04-07T12:26:52;76.57;;;46.17;;
14599;SDS011;7386;45.586;12.854;2023-04-07T12:29:21;74.37;;;45.93;;
14599;SDS011;7386;45.586;12.854;2023-04-07T12:31:50;45.77;;;29.10;;
14599;SDS011;7386;45.586;12.854;2023-04-07T12:34:18;71.50;;;43.93;;
14599;SDS011;7386;45.586;12.854;2023-04-07T12:36:47;76.13;;;45.20;;
14599;SDS011;7386;45.586;12.854;2023-04-07T12:39:17;46.57;;;29.90;;
14599;SDS011;7386;45.586;12.854;2023-04-07T12:41:45;76.90;;;46.83;;
14599;SDS011;7386;45.586;12.854;2023-04-07T12:44:16;76.80;;;47.33;;
14599;SDS011;7386;45.586;12.854;2023-04-07T12:46:45;49.23;;;32.20;;
14599;SDS011;7386;45.586;12.854;2023-04-07T12:49:13;77.97;;;45.80;;
14599;SDS011;7386;45.586;12.854;2023-04-07T12:51:42;86.73;;;48.53;;
14599;SDS011;7386;45.586;12.854;2023-04-07T12:54:11;48.80;;;30.97;;
14599;SDS011;7386;45.586;12.854;2023-04-07T12:56:41;84.73;;;50.17;;
14599;SDS011;7386;45.586;12.854;2023-04-07T12:59:10;104.50;;;61.83;;
14599;SDS011;7386;45.586;12.854;2023-04-07T13:01:39;67.03;;;40.17;;
14599;SDS011;7386;45.586;12.854;2023-04-07T13:04:08;74.47;;;42.23;;
14599;SDS011;7386;45.586;12.854;2023-04-07T13:06:37;111.23;;;61.83;;
14599;SDS011;7386;45.586;12.854;2023-04-07T13:09:05;67.17;;;39.13;;
14599;SDS011;7386;45.586;12.854;2023-04-07T13:11:33;63.53;;;38.50;;
14599;SDS011;7386;45.586;12.854;2023-04-07T13:14:04;114.93;;;64.57;;
14599;SDS011;7386;45.586;12.854;2023-04-07T13:16:32;97.37;;;52.73;;
14599;SDS011;7386;45.586;12.854;2023-04-07T13:19:01;55.10;;;30.23;;
14599;SDS011;7386;45.586;12.854;2023-04-07T13:21:30;85.10;;;50.30;;
14599;SDS011;7386;45.586;12.854;2023-04-07T13:24:12;70.40;;;40.60;;
14599;SDS011;7386;45.586;12.854;2023-04-07T13:26:41;54.67;;;34.20;;
14599;SDS011;7386;45.586;12.854;2023-04-07T13:29:11;76.40;;;44.93;;
14599;SDS011;7386;45.586;12.854;2023-04-07T13:31:39;55.07;;;33.47;;
14599;SDS011;7386;45.586;12.854;2023-04-07T13:34:08;83.80;;;48.07;;
14599;SDS011;7386;45.586;12.854;2023-04-07T13:36:36;77.60;;;46.77;;
14599;SDS011;7386;45.586;12.854;2023-04-07T13:39:05;72.73;;;43.33;;
14599;SDS011;7386;45.586;12.854;2023-04-07T13:41:43;103.63;;;58.67;;
14599;SDS011;7386;45.586;12.854;2023-04-07T13:44:12;116.90;;;65.83;;
14599;SDS011;7386;45.586;12.854;2023-04-07T13:46:40;123.93;;;72.87;;
14599;SDS011;7386;45.586;12.854;2023-04-07T13:49:09;148.77;;;82.60;;
14599;SDS011;7386;45.586;12.854;2023-04-07T13:51:37;154.33;;;88.20;;
14599;SDS011;7386;45.586;12.854;2023-04-07T13:54:06;158.73;;;88.73;;
14599;SDS011;7386;45.586;12.854;2023-04-07T13:56:34;144.53;;;84.27;;
14599;SDS011;7386;45.586;12.854;2023-04-07T13:59:05;155.73;;;91.10;;
14599;SDS011;7386;45.586;12.854;2023-04-07T14:01:33;158.13;;;94.67;;
14599;SDS011;7386;45.586;12.854;2023-04-07T14:04:04;167.17;;;98.27;;
14599;SDS011;7386;45.586;12.854;2023-04-07T14:06:34;163.23;;;97.77;;
14599;SDS011;7386;45.586;12.854;2023-04-07T14:09:03;171.73;;;99.13;;
14599;SDS011;7386;45.586;12.854;2023-04-07T14:11:32;165.67;;;96.70;;
14599;SDS011;7386;45.586;12.854;2023-04-07T14:14:01;166.03;;;98.30;;
14599;SDS011;7386;45.586;12.854;2023-04-07T14:16:31;173.70;;;102.57;;
14599;SDS011;7386;45.586;12.854;2023-04-07T14:18:59;175.50;;;104.00;;
14599;SDS011;7386;45.586;12.854;2023-04-07T14:21:28;187.90;;;108.07;;
14599;SDS011;7386;45.586;12.854;2023-04-07T14:23:57;183.30;;;108.17;;
14599;SDS011;7386;45.586;12.854;2023-04-07T14:26:25;181.90;;;106.77;;
14599;SDS011;7386;45.586;12.854;2023-04-07T14:28:54;167.40;;;98.27;;
14599;SDS011;7386;45.586;12.854;2023-04-07T14:31:22;109.50;;;62.93;;
14599;SDS011;7386;45.586;12.854;2023-04-07T14:33:52;65.27;;;39.83;;
14599;SDS011;7386;45.586;12.854;2023-04-07T14:36:21;98.90;;;56.77;;
14599;SDS011;7386;45.586;12.854;2023-04-07T14:38:50;77.70;;;45.40;;
14599;SDS011;7386;45.586;12.854;2023-04-07T14:41:19;71.87;;;44.93;;
14599;SDS011;7386;45.586;12.854;2023-04-07T14:43:48;120.43;;;71.33;;
14599;SDS011;7386;45.586;12.854;2023-04-07T14:46:21;105.23;;;58.53;;